createdAt,value
2018-07-12T00:00:04.959Z,28.00
2018-07-12T00:01:05.309Z,28.00
2018-07-12T00:02:05.277Z,32.00
2018-07-12T00:03:05.269Z,32.00
2018-07-12T00:04:05.291Z,40.00
2018-07-12T00:05:04.941Z,40.00
2018-07-12T00:06:05.249Z,48.00
2018-07-12T00:07:04.909Z,56.00
2018-07-12T00:08:04.911Z,60.00
2018-07-12T00:09:04.913Z,60.00
2018-07-12T00:10:05.238Z,76.00
2018-07-12T00:11:04.887Z,96.00
2018-07-12T00:12:04.883Z,132.00
2018-07-12T00:13:04.874Z,144.00
2018-07-12T00:14:04.874Z,160.00
2018-07-12T00:15:04.859Z,164.00
2018-07-12T00:16:04.882Z,240.00
2018-07-12T00:17:05.190Z,172.00
2018-07-12T00:18:05.158Z,104.00
2018-07-12T00:19:04.843Z,96.00
2018-07-12T00:20:04.836Z,92.00
2018-07-12T00:21:05.146Z,100.00
2018-07-12T00:22:04.807Z,112.00
2018-07-12T00:23:05.154Z,152.00
2018-07-12T00:24:04.791Z,256.00
2018-07-12T00:25:05.142Z,616.00
2018-07-12T00:26:04.795Z,1152.00
2018-07-12T00:27:05.102Z,228.00
2018-07-12T00:28:05.104Z,1240.00
2018-07-12T00:29:04.759Z,368.00
2018-07-12T00:30:05.101Z,388.00
2018-07-12T00:31:04.759Z,344.00
2018-07-12T00:32:04.745Z,480.00
2018-07-12T00:33:05.082Z,348.00
2018-07-12T00:34:04.726Z,292.00
2018-07-12T00:35:05.067Z,292.00
2018-07-12T00:36:05.043Z,300.00
2018-07-12T00:37:05.048Z,180.00
2018-07-12T00:38:04.707Z,136.00
2018-07-12T00:39:05.041Z,164.00
2018-07-12T00:40:05.024Z,204.00
2018-07-12T00:41:05.025Z,140.00
2018-07-12T00:42:05.003Z,124.00
2018-07-12T00:43:04.996Z,92.00
2018-07-12T00:44:05.006Z,84.00
2018-07-12T00:45:04.665Z,88.00
2018-07-12T00:46:04.657Z,112.00
2018-07-12T00:47:04.663Z,136.00
2018-07-12T00:48:04.658Z,128.00
2018-07-12T00:49:04.966Z,92.00
2018-07-12T00:50:04.633Z,84.00
2018-07-12T00:51:04.630Z,96.00
2018-07-12T00:52:04.613Z,88.00
2018-07-12T00:53:04.632Z,76.00
2018-07-12T00:54:04.584Z,60.00
2018-07-12T00:55:04.923Z,64.00
2018-07-12T00:56:04.581Z,76.00
2018-07-12T00:57:04.583Z,84.00
2018-07-12T00:58:04.913Z,80.00
2018-07-12T00:59:04.910Z,80.00
2018-07-12T01:00:04.905Z,100.00
2018-07-12T01:01:04.551Z,116.00
2018-07-12T01:02:04.555Z,124.00
2018-07-12T01:03:04.544Z,136.00
2018-07-12T01:04:04.858Z,152.00
2018-07-12T01:05:04.854Z,164.00
2018-07-12T01:06:04.860Z,168.00
2018-07-12T01:07:04.510Z,164.00
2018-07-12T01:08:04.828Z,160.00
2018-07-12T01:09:04.497Z,152.00
2018-07-12T01:10:04.835Z,136.00
2018-07-12T01:11:04.486Z,144.00
2018-07-12T01:12:04.494Z,144.00
2018-07-12T01:13:04.794Z,144.00
2018-07-12T01:14:04.492Z,148.00
2018-07-12T01:15:04.779Z,148.00
2018-07-12T01:16:04.437Z,140.00
2018-07-12T01:17:04.764Z,140.00
2018-07-12T01:18:04.447Z,140.00
2018-07-12T01:19:04.756Z,144.00
2018-07-12T01:20:04.747Z,116.00
2018-07-12T01:21:04.410Z,92.00
2018-07-12T01:22:04.401Z,96.00
2018-07-12T01:23:04.414Z,104.00
2018-07-12T01:24:04.466Z,124.00
2018-07-12T01:25:04.381Z,156.00
2018-07-12T01:26:04.738Z,120.00
2018-07-12T01:27:04.371Z,108.00
2018-07-12T01:28:04.371Z,112.00
2018-07-12T01:29:04.707Z,116.00
2018-07-12T01:30:04.698Z,124.00
2018-07-12T01:31:04.383Z,144.00
2018-07-12T01:32:04.351Z,156.00
2018-07-12T01:33:04.327Z,156.00
2018-07-12T01:34:04.316Z,168.00
2018-07-12T01:35:04.353Z,164.00
2018-07-12T01:36:04.730Z,168.00
2018-07-12T01:37:04.318Z,168.00
2018-07-12T01:38:04.645Z,172.00
2018-07-12T01:39:04.620Z,264.00
2018-07-12T01:40:04.633Z,172.00
2018-07-12T01:41:04.292Z,136.00
2018-07-12T01:42:04.604Z,116.00
2018-07-12T01:43:04.262Z,124.00
2018-07-12T01:44:04.581Z,128.00
2018-07-12T01:45:04.231Z,108.00
2018-07-12T01:46:04.572Z,80.00
2018-07-12T01:47:04.237Z,68.00
2018-07-12T01:48:04.578Z,60.00
2018-07-12T01:49:04.557Z,64.00
2018-07-12T01:50:04.572Z,72.00
2018-07-12T01:51:04.559Z,76.00
2018-07-12T01:52:04.535Z,76.00
2018-07-12T01:53:04.234Z,76.00
2018-07-12T01:54:04.193Z,76.00
2018-07-12T01:55:04.205Z,72.00
2018-07-12T01:56:04.509Z,68.00
2018-07-12T01:57:04.498Z,68.00
2018-07-12T01:58:04.162Z,64.00
2018-07-12T01:59:04.160Z,72.00
2018-07-12T02:00:04.164Z,80.00
2018-07-12T02:01:04.493Z,84.00
2018-07-12T02:02:04.150Z,88.00
2018-07-12T02:03:04.124Z,88.00
2018-07-12T02:04:04.455Z,104.00
2018-07-12T02:05:04.449Z,120.00
2018-07-12T02:06:04.430Z,132.00
2018-07-12T02:07:04.110Z,132.00
2018-07-12T02:08:04.085Z,136.00
2018-07-12T02:09:04.104Z,132.00
2018-07-12T02:10:04.068Z,128.00
2018-07-12T02:11:04.088Z,128.00
2018-07-12T02:12:04.417Z,128.00
2018-07-12T02:13:04.390Z,128.00
2018-07-12T02:14:04.049Z,132.00
2018-07-12T02:15:04.072Z,136.00
2018-07-12T02:16:04.384Z,160.00
2018-07-12T02:17:04.117Z,176.00
2018-07-12T02:18:04.044Z,168.00
2018-07-12T02:19:04.019Z,152.00
2018-07-12T02:20:04.013Z,140.00
2018-07-12T02:21:03.998Z,136.00
2018-07-12T02:22:04.344Z,132.00
2018-07-12T02:23:03.983Z,128.00
2018-07-12T02:24:03.998Z,140.00
2018-07-12T02:25:03.984Z,148.00
2018-07-12T02:26:04.322Z,136.00
2018-07-12T02:27:04.290Z,116.00
2018-07-12T02:28:03.977Z,116.00
2018-07-12T02:29:03.952Z,120.00
2018-07-12T02:30:03.941Z,132.00
2018-07-12T02:31:04.272Z,140.00
2018-07-12T02:32:03.968Z,136.00
2018-07-12T02:33:03.941Z,128.00
2018-07-12T02:34:04.251Z,116.00
2018-07-12T02:35:03.966Z,108.00
2018-07-12T02:36:03.895Z,100.00
2018-07-12T02:37:03.937Z,96.00
2018-07-12T02:38:03.916Z,92.00
2018-07-12T02:39:04.238Z,88.00
2018-07-12T02:40:04.212Z,84.00
2018-07-12T02:41:04.207Z,80.00
2018-07-12T02:42:03.885Z,76.00
2018-07-12T02:43:03.866Z,72.00
2018-07-12T02:44:04.199Z,76.00
2018-07-12T02:45:03.860Z,72.00
2018-07-12T02:46:04.188Z,76.00
2018-07-12T02:47:04.163Z,72.00
2018-07-12T02:48:03.820Z,76.00
2018-07-12T02:49:03.825Z,76.00
2018-07-12T02:50:03.836Z,76.00
2018-07-12T02:51:03.828Z,72.00
2018-07-12T02:52:03.813Z,68.00
2018-07-12T02:53:04.148Z,64.00
2018-07-12T02:54:04.114Z,60.00
2018-07-12T02:55:03.783Z,56.00
2018-07-12T02:56:04.121Z,56.00
2018-07-12T02:57:03.765Z,56.00
2018-07-12T02:58:03.780Z,52.00
2018-07-12T02:59:04.095Z,48.00
2018-07-12T03:00:03.745Z,52.00
2018-07-12T03:01:03.738Z,56.00
2018-07-12T03:02:04.073Z,52.00
2018-07-12T03:03:04.051Z,52.00
2018-07-12T03:04:03.722Z,56.00
2018-07-12T03:05:04.038Z,60.00
2018-07-12T03:06:03.712Z,56.00
2018-07-12T03:07:03.704Z,56.00
2018-07-12T03:08:04.024Z,48.00
2018-07-12T03:09:03.689Z,48.00
2018-07-12T03:10:04.017Z,48.00
2018-07-12T03:11:04.005Z,44.00
2018-07-12T03:12:03.995Z,44.00
2018-07-12T03:13:03.990Z,44.00
2018-07-12T03:14:03.983Z,44.00
2018-07-12T03:15:03.977Z,44.00
2018-07-12T03:16:03.969Z,44.00
2018-07-12T03:17:03.962Z,48.00
2018-07-12T03:18:03.640Z,48.00
2018-07-12T03:19:03.624Z,48.00
2018-07-12T03:20:03.959Z,44.00
2018-07-12T03:21:03.621Z,48.00
2018-07-12T03:22:03.930Z,48.00
2018-07-12T03:23:03.919Z,52.00
2018-07-12T03:24:03.589Z,56.00
2018-07-12T03:25:03.571Z,60.00
2018-07-12T03:26:03.899Z,60.00
2018-07-12T03:27:03.576Z,60.00
2018-07-12T03:28:03.914Z,60.00
2018-07-12T03:29:03.883Z,56.00
2018-07-12T03:30:03.549Z,56.00
2018-07-12T03:31:03.868Z,56.00
2018-07-12T03:32:03.543Z,60.00
2018-07-12T03:33:03.534Z,64.00
2018-07-12T03:34:03.531Z,64.00
2018-07-12T03:35:03.529Z,68.00
2018-07-12T03:36:03.523Z,68.00
2018-07-12T03:37:03.828Z,68.00
2018-07-12T03:38:03.495Z,72.00
2018-07-12T03:39:03.498Z,68.00
2018-07-12T03:40:03.489Z,64.00
2018-07-12T03:41:03.461Z,60.00
2018-07-12T03:42:03.814Z,60.00
2018-07-12T03:43:03.470Z,56.00
2018-07-12T03:44:03.444Z,60.00
2018-07-12T03:45:03.448Z,56.00
2018-07-12T03:46:03.451Z,56.00
2018-07-12T03:47:03.778Z,56.00
2018-07-12T03:48:03.426Z,56.00
2018-07-12T03:49:03.747Z,56.00
2018-07-12T03:50:03.412Z,60.00
2018-07-12T03:51:03.404Z,56.00
2018-07-12T03:52:03.385Z,64.00
2018-07-12T03:53:03.410Z,64.00
2018-07-12T03:54:03.389Z,68.00
2018-07-12T03:55:03.388Z,68.00
2018-07-12T03:56:03.728Z,68.00
2018-07-12T03:57:03.366Z,64.00
2018-07-12T03:58:03.739Z,60.00
2018-07-12T03:59:03.678Z,60.00
2018-07-12T04:00:03.689Z,60.00
2018-07-12T04:01:03.352Z,60.00
2018-07-12T04:02:03.341Z,60.00
2018-07-12T04:03:03.313Z,56.00
2018-07-12T04:04:03.656Z,56.00
2018-07-12T04:05:03.302Z,56.00
2018-07-12T04:06:03.636Z,56.00
2018-07-12T04:07:03.311Z,56.00
2018-07-12T04:08:03.621Z,60.00
2018-07-12T04:09:03.287Z,64.00
2018-07-12T04:10:03.285Z,64.00
2018-07-12T04:11:03.299Z,64.00
2018-07-12T04:12:03.611Z,68.00
2018-07-12T04:13:03.599Z,72.00
2018-07-12T04:14:03.576Z,80.00
2018-07-12T04:15:03.574Z,88.00
2018-07-12T04:16:03.589Z,96.00
2018-07-12T04:17:03.223Z,108.00
2018-07-12T04:18:03.254Z,112.00
2018-07-12T04:19:03.545Z,112.00
2018-07-12T04:20:03.244Z,108.00
2018-07-12T04:21:03.538Z,108.00
2018-07-12T04:22:03.524Z,112.00
2018-07-12T04:23:03.534Z,128.00
2018-07-12T04:24:03.535Z,140.00
2018-07-12T04:25:03.505Z,148.00
2018-07-12T04:26:03.197Z,152.00
2018-07-12T04:27:03.505Z,156.00
2018-07-12T04:28:03.513Z,180.00
2018-07-12T04:29:03.477Z,172.00
2018-07-12T04:30:03.470Z,180.00
2018-07-12T04:31:03.170Z,176.00
2018-07-12T04:32:03.469Z,184.00
2018-07-12T04:33:03.162Z,192.00
2018-07-12T04:34:03.119Z,188.00
2018-07-12T04:35:03.455Z,172.00
2018-07-12T04:36:03.096Z,156.00
2018-07-12T04:37:03.134Z,160.00
2018-07-12T04:38:03.434Z,172.00
2018-07-12T04:39:03.413Z,164.00
2018-07-12T04:40:03.423Z,148.00
2018-07-12T04:41:03.405Z,132.00
2018-07-12T04:42:03.409Z,104.00
2018-07-12T04:43:03.379Z,92.00
2018-07-12T04:44:03.043Z,88.00
2018-07-12T04:45:03.069Z,88.00
2018-07-12T04:46:03.379Z,208.00
2018-07-12T04:47:03.375Z,104.00
2018-07-12T04:48:03.012Z,108.00
2018-07-12T04:49:03.351Z,116.00
2018-07-12T04:50:03.028Z,128.00
2018-07-12T04:51:03.368Z,144.00
2018-07-12T04:52:03.001Z,160.00
2018-07-12T04:53:03.334Z,164.00
2018-07-12T04:54:02.990Z,160.00
2018-07-12T04:55:03.321Z,156.00
2018-07-12T04:56:02.979Z,152.00
2018-07-12T04:57:03.314Z,152.00
2018-07-12T04:58:02.995Z,152.00
2018-07-12T04:59:02.957Z,160.00
2018-07-12T05:00:02.960Z,168.00
2018-07-12T05:01:02.961Z,172.00
2018-07-12T05:02:02.946Z,172.00
2018-07-12T05:03:02.950Z,168.00
2018-07-12T05:04:02.914Z,164.00
2018-07-12T05:05:03.254Z,144.00
2018-07-12T05:06:02.923Z,128.00
2018-07-12T05:07:03.239Z,116.00
2018-07-12T05:08:03.232Z,112.00
2018-07-12T05:09:03.226Z,116.00
2018-07-12T05:10:03.218Z,124.00
2018-07-12T05:11:03.192Z,128.00
2018-07-12T05:12:03.211Z,128.00
2018-07-12T05:13:03.197Z,124.00
2018-07-12T05:14:03.181Z,120.00
2018-07-12T05:15:03.191Z,128.00
2018-07-12T05:16:02.822Z,140.00
2018-07-12T05:17:02.839Z,148.00
2018-07-12T05:18:02.828Z,136.00
2018-07-12T05:19:03.155Z,160.00
2018-07-12T05:20:02.825Z,144.00
2018-07-12T05:21:02.813Z,136.00
2018-07-12T05:22:03.197Z,128.00
2018-07-12T05:23:03.113Z,108.00
2018-07-12T05:24:03.103Z,100.00
2018-07-12T05:25:03.101Z,104.00
2018-07-12T05:26:03.119Z,64.00
2018-07-12T05:27:02.784Z,76.00
2018-07-12T05:28:02.746Z,92.00
2018-07-12T05:29:02.746Z,88.00
2018-07-12T05:30:02.751Z,92.00
2018-07-12T05:31:02.781Z,88.00
2018-07-12T05:32:02.742Z,96.00
2018-07-12T05:33:02.724Z,112.00
2018-07-12T05:34:03.037Z,120.00
2018-07-12T05:35:02.696Z,124.00
2018-07-12T05:36:02.728Z,140.00
2018-07-12T05:37:02.697Z,144.00
2018-07-12T05:38:02.691Z,140.00
2018-07-12T05:39:03.074Z,136.00
2018-07-12T05:40:03.002Z,140.00
2018-07-12T05:41:02.679Z,136.00
2018-07-12T05:42:02.647Z,132.00
2018-07-12T05:43:02.670Z,128.00
2018-07-12T05:44:02.989Z,128.00
2018-07-12T05:45:02.643Z,128.00
2018-07-12T05:46:02.956Z,124.00
2018-07-12T05:47:02.975Z,124.00
2018-07-12T05:48:02.944Z,116.00
2018-07-12T05:49:02.604Z,108.00
2018-07-12T05:50:02.929Z,104.00
2018-07-12T05:51:02.937Z,108.00
2018-07-12T05:52:02.595Z,112.00
2018-07-12T05:53:02.589Z,120.00
2018-07-12T05:54:02.586Z,120.00
2018-07-12T05:55:02.577Z,112.00
2018-07-12T05:56:02.907Z,108.00
2018-07-12T05:57:02.568Z,112.00
2018-07-12T05:58:02.898Z,120.00
2018-07-12T05:59:02.867Z,128.00
2018-07-12T06:00:02.551Z,132.00
2018-07-12T06:01:02.548Z,140.00
2018-07-12T06:02:02.854Z,148.00
2018-07-12T06:03:02.519Z,140.00
2018-07-12T06:04:02.838Z,120.00
2018-07-12T06:05:02.516Z,120.00
2018-07-12T06:06:02.846Z,104.00
2018-07-12T06:07:02.498Z,100.00
2018-07-12T06:08:02.810Z,100.00
2018-07-12T06:09:02.804Z,104.00
2018-07-12T06:10:02.483Z,104.00
2018-07-12T06:11:02.473Z,108.00
2018-07-12T06:12:02.471Z,108.00
2018-07-12T06:13:02.461Z,112.00
2018-07-12T06:14:02.788Z,108.00
2018-07-12T06:15:02.786Z,96.00
2018-07-12T06:16:02.448Z,96.00
2018-07-12T06:17:02.781Z,100.00
2018-07-12T06:18:02.426Z,112.00
2018-07-12T06:19:02.440Z,104.00
2018-07-12T06:20:02.748Z,100.00
2018-07-12T06:21:02.410Z,92.00
2018-07-12T06:22:02.716Z,80.00
2018-07-12T06:23:02.715Z,76.00
2018-07-12T06:24:02.368Z,76.00
2018-07-12T06:25:02.377Z,76.00
2018-07-12T06:26:02.368Z,72.00
2018-07-12T06:27:02.702Z,68.00
2018-07-12T06:28:02.695Z,68.00
2018-07-12T06:29:02.670Z,68.00
2018-07-12T06:30:02.354Z,76.00
2018-07-12T06:31:02.682Z,84.00
2018-07-12T06:32:02.668Z,80.00
2018-07-12T06:33:02.659Z,84.00
2018-07-12T06:34:02.320Z,84.00
2018-07-12T06:35:02.633Z,84.00
2018-07-12T06:36:02.306Z,84.00
2018-07-12T06:37:02.300Z,88.00
2018-07-12T06:38:02.628Z,96.00
2018-07-12T06:39:02.281Z,100.00
2018-07-12T06:40:02.275Z,100.00
2018-07-12T06:41:02.261Z,108.00
2018-07-12T06:42:02.600Z,112.00
2018-07-12T06:43:02.597Z,112.00
2018-07-12T06:44:02.597Z,112.00
2018-07-12T06:45:02.568Z,112.00
2018-07-12T06:46:02.579Z,112.00
2018-07-12T06:47:02.569Z,108.00
2018-07-12T06:48:02.213Z,108.00
2018-07-12T06:49:02.542Z,112.00
2018-07-12T06:50:02.544Z,108.00
2018-07-12T06:51:02.208Z,104.00
2018-07-12T06:52:02.188Z,96.00
2018-07-12T06:53:02.519Z,84.00
2018-07-12T06:54:02.502Z,84.00
2018-07-12T06:55:02.510Z,80.00
2018-07-12T06:56:02.155Z,76.00
2018-07-12T06:57:02.491Z,88.00
2018-07-12T06:58:02.158Z,96.00
2018-07-12T06:59:02.495Z,100.00
2018-07-12T07:00:02.149Z,108.00
2018-07-12T07:01:02.121Z,112.00
2018-07-12T07:02:02.454Z,116.00
2018-07-12T07:03:02.442Z,92.00
2018-07-12T07:04:02.122Z,92.00
2018-07-12T07:05:02.115Z,100.00
2018-07-12T07:06:02.536Z,104.00
2018-07-12T07:07:02.449Z,108.00
2018-07-12T07:08:02.081Z,108.00
2018-07-12T07:09:02.092Z,104.00
2018-07-12T07:10:02.409Z,100.00
2018-07-12T07:11:02.402Z,96.00
2018-07-12T07:12:02.400Z,92.00
2018-07-12T07:13:02.394Z,88.00
2018-07-12T07:14:02.389Z,88.00
2018-07-12T07:15:02.386Z,92.00
2018-07-12T07:16:02.357Z,100.00
2018-07-12T07:17:02.036Z,104.00
2018-07-12T07:18:02.356Z,104.00
2018-07-12T07:19:02.335Z,104.00
2018-07-12T07:20:02.403Z,104.00
2018-07-12T07:21:01.990Z,104.00
2018-07-12T07:22:01.990Z,100.00
2018-07-12T07:23:02.004Z,104.00
2018-07-12T07:24:02.321Z,100.00
2018-07-12T07:25:02.317Z,104.00
2018-07-12T07:26:02.303Z,100.00
2018-07-12T07:27:01.974Z,96.00
2018-07-12T07:28:02.303Z,92.00
2018-07-12T07:29:02.271Z,92.00
2018-07-12T07:30:01.930Z,88.00
2018-07-12T07:31:01.938Z,88.00
2018-07-12T07:32:01.934Z,80.00
2018-07-12T07:33:01.929Z,84.00
2018-07-12T07:34:02.253Z,88.00
2018-07-12T07:35:01.901Z,84.00
2018-07-12T07:36:02.241Z,84.00
2018-07-12T07:37:01.903Z,84.00
2018-07-12T07:38:02.213Z,88.00
2018-07-12T07:39:02.220Z,92.00
2018-07-12T07:40:01.879Z,96.00
2018-07-12T07:41:02.218Z,96.00
2018-07-12T07:42:02.181Z,100.00
2018-07-12T07:43:02.246Z,100.00
2018-07-12T07:44:01.844Z,100.00
2018-07-12T07:45:02.187Z,100.00
2018-07-12T07:46:02.183Z,104.00
2018-07-12T07:47:01.830Z,104.00
2018-07-12T07:48:01.822Z,100.00
2018-07-12T07:49:01.810Z,100.00
2018-07-12T07:50:01.836Z,96.00
2018-07-12T07:51:01.796Z,96.00
2018-07-12T07:52:01.797Z,88.00
2018-07-12T07:53:02.109Z,84.00
2018-07-12T07:54:02.117Z,80.00
2018-07-12T07:55:02.113Z,76.00
2018-07-12T07:56:01.756Z,80.00
2018-07-12T07:57:02.157Z,80.00
2018-07-12T07:58:01.755Z,84.00
2018-07-12T07:59:01.750Z,84.00
2018-07-12T08:00:01.747Z,88.00
2018-07-12T08:01:01.730Z,88.00
2018-07-12T08:02:01.735Z,88.00
2018-07-12T08:03:01.716Z,84.00
2018-07-12T08:04:02.044Z,92.00
2018-07-12T08:05:02.029Z,88.00
2018-07-12T08:06:02.022Z,84.00
2018-07-12T08:07:02.015Z,80.00
2018-07-12T08:08:01.690Z,76.00
2018-07-12T08:09:02.001Z,76.00
2018-07-12T08:10:02.019Z,80.00
2018-07-12T08:11:01.673Z,80.00
2018-07-12T08:12:01.998Z,80.00
2018-07-12T08:13:01.663Z,84.00
2018-07-12T08:14:01.986Z,92.00
2018-07-12T08:15:01.642Z,96.00
2018-07-12T08:16:01.624Z,88.00
2018-07-12T08:17:01.631Z,88.00
2018-07-12T08:18:01.625Z,80.00
2018-07-12T08:19:01.952Z,76.00
2018-07-12T08:20:01.937Z,76.00
2018-07-12T08:21:01.946Z,76.00
2018-07-12T08:22:01.588Z,72.00
2018-07-12T08:23:01.573Z,68.00
2018-07-12T08:24:01.898Z,64.00
2018-07-12T08:25:01.895Z,56.00
2018-07-12T08:26:01.886Z,52.00
2018-07-12T08:27:01.573Z,52.00
2018-07-12T08:28:01.555Z,52.00
2018-07-12T08:29:01.557Z,52.00
2018-07-12T08:30:01.619Z,52.00
2018-07-12T08:31:01.543Z,56.00
2018-07-12T08:32:01.853Z,64.00
2018-07-12T08:33:01.843Z,64.00
2018-07-12T08:34:01.523Z,64.00
2018-07-12T08:35:01.823Z,64.00
2018-07-12T08:36:01.488Z,64.00
2018-07-12T08:37:01.923Z,72.00
2018-07-12T08:38:01.811Z,76.00
2018-07-12T08:39:01.483Z,80.00
2018-07-12T08:40:01.471Z,84.00
2018-07-12T08:41:01.806Z,84.00
2018-07-12T08:42:01.797Z,88.00
2018-07-12T08:43:01.796Z,88.00
2018-07-12T08:44:01.473Z,92.00
2018-07-12T08:45:01.440Z,80.00
2018-07-12T08:46:01.447Z,68.00
2018-07-12T08:47:01.431Z,60.00
2018-07-12T08:48:01.764Z,56.00
2018-07-12T08:49:01.417Z,56.00
2018-07-12T08:50:01.408Z,52.00
2018-07-12T08:51:01.731Z,52.00
2018-07-12T08:52:01.717Z,56.00
2018-07-12T08:53:01.780Z,56.00
2018-07-12T08:54:01.717Z,56.00
2018-07-12T08:55:01.694Z,64.00
2018-07-12T08:56:01.371Z,72.00
2018-07-12T08:57:01.680Z,72.00
2018-07-12T08:58:01.698Z,72.00
2018-07-12T08:59:01.354Z,72.00
2018-07-12T09:00:01.671Z,68.00
2018-07-12T09:01:01.660Z,64.00
2018-07-12T09:02:01.330Z,64.00
2018-07-12T09:03:01.708Z,60.00
2018-07-12T09:04:01.664Z,60.00
2018-07-12T09:05:01.633Z,56.00
2018-07-12T09:06:01.626Z,56.00
2018-07-12T09:07:01.631Z,56.00
2018-07-12T09:08:01.624Z,52.00
2018-07-12T09:09:01.619Z,52.00
2018-07-12T09:10:01.279Z,52.00
2018-07-12T09:11:01.589Z,56.00
2018-07-12T09:12:01.580Z,56.00
2018-07-12T09:13:01.245Z,56.00
2018-07-12T09:14:01.238Z,52.00
2018-07-12T09:15:01.241Z,52.00
2018-07-12T09:16:01.227Z,48.00
2018-07-12T09:17:01.241Z,48.00
2018-07-12T09:18:01.211Z,52.00
2018-07-12T09:19:01.217Z,52.00
2018-07-12T09:20:01.204Z,52.00
2018-07-12T09:21:01.206Z,52.00
2018-07-12T09:22:01.186Z,48.00
2018-07-12T09:23:01.505Z,52.00
2018-07-12T09:24:01.516Z,52.00
2018-07-12T09:25:01.520Z,52.00
2018-07-12T09:26:01.173Z,56.00
2018-07-12T09:27:01.484Z,56.00
2018-07-12T09:28:01.479Z,56.00
2018-07-12T09:29:01.181Z,52.00
2018-07-12T09:30:01.474Z,52.00
2018-07-12T09:31:01.454Z,52.00
2018-07-12T09:32:01.464Z,48.00
2018-07-12T09:33:01.441Z,48.00
2018-07-12T09:34:01.114Z,48.00
2018-07-12T09:35:01.422Z,48.00
2018-07-12T09:36:01.085Z,44.00
2018-07-12T09:37:01.078Z,44.00
2018-07-12T09:38:01.403Z,40.00
2018-07-12T09:39:01.072Z,40.00
2018-07-12T09:40:01.408Z,44.00
2018-07-12T09:41:01.384Z,40.00
2018-07-12T09:42:01.373Z,40.00
2018-07-12T09:43:01.402Z,40.00
2018-07-12T09:44:01.049Z,44.00
2018-07-12T09:45:01.043Z,44.00
2018-07-12T09:46:01.354Z,48.00
2018-07-12T09:47:01.017Z,44.00
2018-07-12T09:48:01.010Z,48.00
2018-07-12T09:49:01.054Z,44.00
2018-07-12T09:50:01.022Z,44.00
2018-07-12T09:51:01.005Z,44.00
2018-07-12T09:52:01.310Z,44.00
2018-07-12T09:53:00.985Z,44.00
2018-07-12T09:54:00.973Z,44.00
2018-07-12T09:55:00.969Z,44.00
2018-07-12T09:56:01.064Z,48.00
2018-07-12T09:57:00.967Z,48.00
2018-07-12T09:58:00.952Z,44.00
2018-07-12T09:59:01.280Z,44.00
2018-07-12T10:00:00.930Z,44.00
2018-07-12T10:01:00.920Z,40.00
2018-07-12T10:02:01.243Z,44.00
2018-07-12T10:03:01.256Z,44.00
2018-07-12T10:04:01.233Z,44.00
2018-07-12T10:05:00.912Z,44.00
2018-07-12T10:06:00.903Z,44.00
2018-07-12T10:07:01.210Z,40.00
2018-07-12T10:08:01.205Z,40.00
2018-07-12T10:09:00.881Z,40.00
2018-07-12T10:10:01.191Z,36.00
2018-07-12T10:11:00.889Z,40.00
2018-07-12T10:12:01.197Z,40.00
2018-07-12T10:13:00.855Z,36.00
2018-07-12T10:14:01.163Z,40.00
2018-07-12T10:15:01.171Z,36.00
2018-07-12T10:16:01.148Z,36.00
2018-07-12T10:17:01.150Z,32.00
2018-07-12T10:18:01.162Z,36.00
2018-07-12T10:19:01.121Z,32.00
2018-07-12T10:20:01.189Z,36.00
2018-07-12T10:21:00.778Z,36.00
2018-07-12T10:22:00.784Z,36.00
2018-07-12T10:23:01.112Z,36.00
2018-07-12T10:24:01.114Z,36.00
2018-07-12T10:25:01.089Z,40.00
2018-07-12T10:26:01.102Z,36.00
2018-07-12T10:27:01.068Z,36.00
2018-07-12T10:28:01.086Z,36.00
2018-07-12T10:29:01.063Z,36.00
2018-07-12T10:30:00.743Z,36.00
2018-07-12T10:31:01.056Z,36.00
2018-07-12T10:32:00.726Z,32.00
2018-07-12T10:33:01.061Z,36.00
2018-07-12T10:34:01.030Z,36.00
2018-07-12T10:35:00.694Z,32.00
2018-07-12T10:36:01.040Z,32.00
2018-07-12T10:37:01.010Z,36.00
2018-07-12T10:38:01.003Z,32.00
2018-07-12T10:39:00.653Z,36.00
2018-07-12T10:40:00.988Z,32.00
2018-07-12T10:41:00.988Z,36.00
2018-07-12T10:42:00.642Z,36.00
2018-07-12T10:43:01.010Z,36.00
2018-07-12T10:44:00.628Z,36.00
2018-07-12T10:45:00.954Z,32.00
2018-07-12T10:46:00.629Z,36.00
2018-07-12T10:47:00.932Z,36.00
2018-07-12T10:48:00.935Z,36.00
2018-07-12T10:49:00.601Z,36.00
2018-07-12T10:50:00.922Z,36.00
2018-07-12T10:51:00.584Z,36.00
2018-07-12T10:52:00.917Z,36.00
2018-07-12T10:53:00.902Z,32.00
2018-07-12T10:54:00.571Z,32.00
2018-07-12T10:55:00.562Z,32.00
2018-07-12T10:56:00.552Z,28.00
2018-07-12T10:57:00.560Z,32.00
2018-07-12T10:58:00.545Z,32.00
2018-07-12T10:59:00.886Z,32.00
2018-07-12T11:00:00.517Z,32.00
2018-07-12T11:01:00.527Z,32.00
2018-07-12T11:02:00.501Z,32.00
2018-07-12T11:03:00.509Z,32.00
2018-07-12T11:04:00.844Z,36.00
2018-07-12T11:05:00.818Z,32.00
2018-07-12T11:06:00.815Z,36.00
2018-07-12T11:07:00.824Z,32.00
2018-07-12T11:08:00.817Z,36.00
2018-07-12T11:09:00.518Z,32.00
2018-07-12T11:10:00.784Z,32.00
2018-07-12T11:11:00.802Z,28.00
2018-07-12T11:12:00.447Z,28.00
2018-07-12T11:13:00.764Z,28.00
2018-07-12T11:14:00.758Z,28.00
2018-07-12T11:15:00.751Z,24.00
2018-07-12T11:16:00.765Z,24.00
2018-07-12T11:17:00.763Z,24.00
2018-07-12T11:18:00.414Z,24.00
2018-07-12T11:19:00.745Z,24.00
2018-07-12T11:20:00.734Z,24.00
2018-07-12T11:21:00.452Z,24.00
2018-07-12T11:22:00.731Z,24.00
2018-07-12T11:23:00.384Z,24.00
2018-07-12T11:24:00.374Z,20.00
2018-07-12T11:25:00.359Z,20.00
2018-07-12T11:26:00.352Z,20.00
2018-07-12T11:27:00.347Z,20.00
2018-07-12T11:28:00.337Z,24.00
2018-07-12T11:29:00.365Z,20.00
2018-07-12T11:30:00.650Z,20.00
2018-07-12T11:31:00.307Z,20.00
2018-07-12T11:32:00.302Z,20.00
2018-07-12T11:33:00.647Z,20.00
2018-07-12T11:34:00.292Z,16.00
2018-07-12T11:35:00.286Z,20.00
2018-07-12T11:36:00.264Z,16.00
2018-07-12T11:37:00.620Z,20.00
2018-07-12T11:38:00.612Z,20.00
2018-07-12T11:39:00.653Z,16.00
2018-07-12T11:40:00.253Z,16.00
2018-07-12T11:41:00.240Z,16.00
2018-07-12T11:42:00.568Z,16.00
2018-07-12T11:43:00.241Z,16.00
2018-07-12T11:44:00.222Z,16.00
2018-07-12T11:45:00.207Z,16.00
2018-07-12T11:46:00.540Z,16.00
2018-07-12T11:47:00.203Z,16.00
2018-07-12T11:48:00.203Z,16.00
2018-07-12T11:49:00.201Z,16.00
2018-07-12T11:50:00.533Z,16.00
2018-07-12T11:51:00.534Z,12.00
2018-07-12T11:52:00.527Z,12.00
2018-07-12T11:53:00.185Z,16.00
2018-07-12T11:54:00.487Z,16.00
2018-07-12T11:55:00.498Z,16.00
2018-07-12T11:56:00.160Z,16.00
2018-07-12T11:57:00.148Z,16.00
2018-07-12T11:58:00.479Z,12.00
2018-07-12T11:59:00.114Z,12.00
2018-07-12T12:00:00.462Z,12.00
2018-07-12T12:01:00.441Z,12.00
2018-07-12T12:02:00.150Z,12.00
2018-07-12T12:03:00.096Z,16.00
2018-07-12T12:04:00.438Z,12.00
2018-07-12T12:05:00.083Z,12.00
2018-07-12T12:06:00.063Z,12.00
2018-07-12T12:07:00.167Z,12.00
2018-07-12T12:08:00.393Z,12.00
2018-07-12T12:09:00.068Z,12.00
2018-07-12T12:10:00.043Z,8.00
2018-07-12T12:11:00.371Z,8.00
2018-07-12T12:12:00.036Z,12.00
2018-07-12T12:13:00.121Z,12.00
2018-07-12T12:14:00.352Z,8.00
2018-07-12T12:15:00.344Z,8.00
2018-07-12T12:16:00.340Z,8.00
2018-07-12T12:17:00.024Z,8.00
2018-07-12T12:17:59.995Z,8.00
2018-07-12T12:19:00.319Z,8.00
2018-07-12T12:19:59.987Z,8.00
2018-07-12T12:20:59.976Z,8.00
2018-07-12T12:21:59.964Z,8.00
2018-07-12T12:22:59.951Z,8.00
2018-07-12T12:23:59.946Z,8.00
2018-07-12T12:25:00.280Z,4.00
2018-07-12T12:26:00.268Z,4.00
2018-07-12T12:26:59.946Z,8.00
2018-07-12T12:28:00.258Z,8.00
2018-07-12T12:28:59.928Z,8.00
2018-07-12T12:29:59.925Z,4.00
2018-07-12T12:31:00.239Z,4.00
2018-07-12T12:32:00.230Z,4.00
2018-07-12T12:32:59.895Z,4.00
2018-07-12T12:34:00.236Z,4.00
2018-07-12T12:35:00.207Z,4.00
2018-07-12T12:36:00.204Z,4.00
2018-07-12T12:36:59.881Z,4.00
2018-07-12T12:37:59.862Z,4.00
2018-07-12T12:38:59.843Z,0.00
2018-07-12T12:40:00.176Z,0.00
2018-07-12T12:41:00.179Z,4.00
2018-07-12T12:41:59.850Z,4.00
2018-07-12T12:42:59.836Z,4.00
2018-07-12T12:44:00.169Z,4.00
2018-07-12T12:44:59.802Z,4.00